createdAt,value
2023-04-27T00:02:02.254Z,3.03
2023-04-27T00:04:29.291Z,3.42
2023-04-27T00:06:56.262Z,3.08
2023-04-27T00:09:23.031Z,2.90
2023-04-27T00:11:49.772Z,3.17
2023-04-27T00:14:16.652Z,3.15
2023-04-27T00:16:47.904Z,2.70
2023-04-27T00:19:15.372Z,3.00
2023-04-27T00:21:42.530Z,3.35
2023-04-27T00:24:09.175Z,3.17
2023-04-27T00:26:35.909Z,3.10
2023-04-27T00:29:03.024Z,3.53
2023-04-27T00:31:29.712Z,3.40
2023-04-27T00:33:56.456Z,3.65
2023-04-27T00:36:23.122Z,4.22
2023-04-27T00:38:49.851Z,3.05
2023-04-27T00:41:16.597Z,3.40
2023-04-27T00:43:45.061Z,3.10
2023-04-27T00:46:16.907Z,3.22
2023-04-27T00:48:46.723Z,3.30
2023-04-27T00:51:16.506Z,3.42
2023-04-27T00:53:43.711Z,3.63
2023-04-27T00:56:11.120Z,3.30
2023-04-27T00:58:37.759Z,3.85
2023-04-27T01:01:07.787Z,2.67
2023-04-27T01:06:03.803Z,3.90
2023-04-27T01:08:30.580Z,3.25
2023-04-27T01:10:57.346Z,3.20
2023-04-27T01:13:24.083Z,3.03
2023-04-27T01:15:50.887Z,3.45
2023-04-27T01:18:17.847Z,3.42
2023-04-27T01:20:47.030Z,3.83
2023-04-27T01:23:16.784Z,3.43
2023-04-27T01:25:49.187Z,3.40
2023-04-27T01:28:18.083Z,3.38
2023-04-27T01:30:47.350Z,3.72
2023-04-27T01:33:14.021Z,3.13
2023-04-27T01:35:40.743Z,3.53
2023-04-27T01:38:07.465Z,3.50
2023-04-27T01:40:34.266Z,3.08
2023-04-27T01:43:00.938Z,2.97
2023-04-27T01:45:27.621Z,3.17
2023-04-27T01:47:54.381Z,3.53
2023-04-27T01:50:27.336Z,3.33
2023-04-27T01:52:54.018Z,3.50
2023-04-27T01:55:20.707Z,3.17
2023-04-27T01:57:47.348Z,3.22
2023-04-27T02:00:14.443Z,3.15
2023-04-27T02:02:41.238Z,3.35
2023-04-27T02:05:20.580Z,2.92
2023-04-27T02:07:47.333Z,3.40
2023-04-27T02:10:14.022Z,3.30
2023-04-27T02:12:41.109Z,3.20
2023-04-27T02:15:08.602Z,3.35
2023-04-27T02:17:35.893Z,3.47
2023-04-27T02:20:03.022Z,3.50
2023-04-27T02:22:32.616Z,3.70
2023-04-27T02:25:02.741Z,3.75
2023-04-27T02:31:48.781Z,3.13
2023-04-27T02:35:17.939Z,3.35
2023-04-27T02:38:59.395Z,3.33
2023-04-27T02:49:56.842Z,3.28
2023-04-27T02:53:32.237Z,3.65
2023-04-27T02:56:55.206Z,3.58
2023-04-27T03:00:17.955Z,3.55
2023-04-27T03:03:59.355Z,3.80
2023-04-27T03:07:41.111Z,3.55
2023-04-27T03:11:04.354Z,3.30
2023-04-27T03:14:27.240Z,3.67
2023-04-27T03:17:56.595Z,4.25
2023-04-27T03:21:19.845Z,4.27
2023-04-27T03:23:46.565Z,3.83
2023-04-27T03:26:14.387Z,3.20
2023-04-27T03:28:42.132Z,3.30
2023-04-27T03:31:10.966Z,3.88
2023-04-27T03:33:37.950Z,3.50
2023-04-27T03:36:08.707Z,3.92
2023-04-27T03:38:40.372Z,3.90
2023-04-27T03:41:07.070Z,3.80
2023-04-27T03:43:33.773Z,4.03
2023-04-27T03:46:00.462Z,4.10
2023-04-27T03:48:29.609Z,3.80
2023-04-27T03:50:56.281Z,4.30
2023-04-27T03:53:23.009Z,4.43
2023-04-27T03:55:49.740Z,4.30
2023-04-27T03:58:17.469Z,3.75
2023-04-27T04:00:46.482Z,3.60
2023-04-27T04:03:13.443Z,3.85
2023-04-27T04:05:42.979Z,4.10
2023-04-27T04:08:09.713Z,3.70
2023-04-27T04:10:36.453Z,3.40
2023-04-27T04:13:05.395Z,3.90
2023-04-27T04:15:34.538Z,3.90
2023-04-27T04:18:01.446Z,3.70
2023-04-27T04:20:28.352Z,3.97
2023-04-27T04:22:57.472Z,3.70
2023-04-27T04:25:26.137Z,3.63
2023-04-27T04:27:52.902Z,3.60
2023-04-27T04:30:19.974Z,3.90
2023-04-27T04:32:49.712Z,4.15
2023-04-27T04:35:19.614Z,3.63
2023-04-27T04:37:47.578Z,4.30
2023-04-27T04:40:14.441Z,4.05
2023-04-27T04:42:41.359Z,4.30
2023-04-27T04:45:08.667Z,3.83
2023-04-27T04:47:35.358Z,3.63
2023-04-27T04:50:04.251Z,4.03
2023-04-27T04:52:31.012Z,4.57
2023-04-27T04:54:57.706Z,4.40
2023-04-27T04:57:24.383Z,4.15
2023-04-27T04:59:51.146Z,4.57
2023-04-27T05:02:17.838Z,4.20
2023-04-27T05:04:46.788Z,4.40
2023-04-27T05:07:15.264Z,4.25
2023-04-27T05:09:45.081Z,4.43
2023-04-27T05:12:11.820Z,4.97
2023-04-27T05:14:38.561Z,4.28
2023-04-27T05:17:05.226Z,4.97
2023-04-27T05:19:31.985Z,5.25
2023-04-27T05:21:59.084Z,4.75
2023-04-27T05:24:26.863Z,4.80
2023-04-27T05:26:54.300Z,5.60
2023-04-27T05:29:23.253Z,4.72
2023-04-27T05:31:50.055Z,5.03
2023-04-27T05:34:20.771Z,4.13
2023-04-27T05:36:47.571Z,4.82
2023-04-27T05:39:14.532Z,4.60
2023-04-27T05:41:43.619Z,5.30
2023-04-27T05:44:10.296Z,5.43
2023-04-27T05:46:38.683Z,4.70
2023-04-27T05:49:05.706Z,4.70
2023-04-27T05:51:34.941Z,4.75
2023-04-27T05:54:01.875Z,5.13
2023-04-27T05:56:31.088Z,4.60
2023-04-27T05:59:02.384Z,5.27
2023-04-27T06:01:31.903Z,4.38
2023-04-27T06:04:01.394Z,4.67
2023-04-27T06:06:31.753Z,4.72
2023-04-27T06:11:25.173Z,4.75
2023-04-27T06:13:51.892Z,4.80
2023-04-27T06:16:18.746Z,4.53
2023-04-27T06:18:45.623Z,5.57
2023-04-27T06:21:14.507Z,4.40
2023-04-27T06:23:41.163Z,5.45
2023-04-27T06:26:10.208Z,5.50
2023-04-27T06:28:36.846Z,4.45
2023-04-27T06:31:03.741Z,5.20
2023-04-27T06:33:33.333Z,5.35
2023-04-27T06:36:04.777Z,4.88
2023-04-27T06:38:32.043Z,4.60
2023-04-27T06:40:59.202Z,4.50
2023-04-27T06:43:25.914Z,4.75
2023-04-27T06:45:52.765Z,4.88
2023-04-27T06:48:19.595Z,3.80
2023-04-27T06:50:47.207Z,4.72
2023-04-27T06:53:14.008Z,4.95
2023-04-27T06:55:43.464Z,4.90
2023-04-27T06:58:11.707Z,4.82
2023-04-27T07:00:40.667Z,4.85
2023-04-27T07:03:07.442Z,4.65
2023-04-27T07:05:34.705Z,5.03
2023-04-27T07:08:04.587Z,5.47
2023-04-27T07:10:33.844Z,4.65
2023-04-27T07:13:00.563Z,5.50
2023-04-27T07:15:27.406Z,4.60
2023-04-27T07:17:54.172Z,5.30
2023-04-27T07:20:23.326Z,5.13
2023-04-27T07:22:50.011Z,5.37
2023-04-27T07:25:19.768Z,5.90
2023-04-27T07:27:49.154Z,5.20
2023-04-27T07:30:18.321Z,5.30
2023-04-27T07:32:45.605Z,4.97
2023-04-27T07:35:13.486Z,4.57
2023-04-27T07:37:40.396Z,5.30
2023-04-27T07:40:16.443Z,5.43
2023-04-27T07:42:46.241Z,5.20
2023-04-27T07:45:12.956Z,5.03
2023-04-27T07:47:39.906Z,5.70
2023-04-27T07:50:09.634Z,5.10
2023-04-27T07:52:37.323Z,5.60
2023-04-27T07:55:04.662Z,5.30
2023-04-27T07:57:31.520Z,5.55
2023-04-27T08:00:00.843Z,5.90
2023-04-27T08:02:31.674Z,6.20
2023-04-27T08:05:02.960Z,5.00
2023-04-27T08:07:30.234Z,5.65
2023-04-27T08:09:56.996Z,5.18
2023-04-27T08:12:23.691Z,4.90
2023-04-27T08:14:53.052Z,5.63
2023-04-27T08:17:21.988Z,5.43
2023-04-27T08:19:56.073Z,4.45
2023-04-27T08:22:22.758Z,4.97
2023-04-27T08:24:49.432Z,4.75
2023-04-27T08:27:16.185Z,4.60
2023-04-27T08:29:49.407Z,6.00
2023-04-27T08:32:19.370Z,5.47
2023-04-27T08:37:15.651Z,4.75
2023-04-27T08:39:42.426Z,4.43
2023-04-27T08:42:13.729Z,5.13
2023-04-27T08:44:44.479Z,4.93
2023-04-27T08:47:11.712Z,4.25
2023-04-27T08:49:38.849Z,5.28
2023-04-27T08:52:12.561Z,4.68
2023-04-27T08:54:39.540Z,4.88
2023-04-27T08:57:16.324Z,5.28
2023-04-27T08:59:48.700Z,4.90
2023-04-27T09:02:21.845Z,5.03
2023-04-27T09:04:48.835Z,5.07
2023-04-27T09:07:17.808Z,4.32
2023-04-27T09:09:45.629Z,4.55
2023-04-27T09:12:16.319Z,4.97
2023-04-27T09:14:43.534Z,5.10
2023-04-27T09:17:10.576Z,5.13
2023-04-27T09:19:39.456Z,4.32
2023-04-27T09:22:08.836Z,5.13
2023-04-27T09:24:37.846Z,7.03
2023-04-27T09:27:06.299Z,4.45
2023-04-27T09:29:37.604Z,4.80
2023-04-27T09:32:19.093Z,5.00
2023-04-27T09:34:45.855Z,4.30
2023-04-27T09:37:14.260Z,4.85
2023-04-27T09:39:42.267Z,4.78
2023-04-27T09:42:09.253Z,4.63
2023-04-27T09:44:38.581Z,4.50
2023-04-27T09:47:06.293Z,5.28
2023-04-27T09:49:34.861Z,4.90
2023-04-27T09:52:04.155Z,5.55
2023-04-27T09:54:33.388Z,5.25
2023-04-27T09:57:12.740Z,5.35
2023-04-27T10:00:01.307Z,4.68
2023-04-27T10:02:30.355Z,5.15
2023-04-27T10:05:42.706Z,6.10
2023-04-27T10:08:11.433Z,4.85
2023-04-27T10:10:48.250Z,5.43
2023-04-27T10:13:27.911Z,4.50
2023-04-27T10:15:57.563Z,4.68
2023-04-27T10:18:31.108Z,4.45
2023-04-27T10:21:10.059Z,5.43
2023-04-27T10:23:51.773Z,4.93
2023-04-27T10:26:29.380Z,4.75
2023-04-27T10:29:04.826Z,4.40
2023-04-27T10:31:31.930Z,5.13
2023-04-27T10:34:09.451Z,4.55
2023-04-27T10:36:40.868Z,4.65
2023-04-27T10:39:16.541Z,5.13
2023-04-27T10:41:54.370Z,4.65
2023-04-27T10:44:27.143Z,5.00
2023-04-27T10:46:55.119Z,4.85
2023-04-27T10:49:23.086Z,5.03
2023-04-27T10:51:53.224Z,5.50
2023-04-27T10:54:19.985Z,4.70
2023-04-27T10:56:46.723Z,4.50
2023-04-27T10:59:13.713Z,5.53
2023-04-27T11:01:40.916Z,5.35
2023-04-27T11:04:07.718Z,5.95
2023-04-27T11:06:42.958Z,4.47
2023-04-27T11:09:11.014Z,4.22
2023-04-27T11:11:37.814Z,4.72
2023-04-27T11:14:04.604Z,4.78
2023-04-27T11:16:33.958Z,4.65
2023-04-27T11:19:07.214Z,4.50
2023-04-27T11:21:33.913Z,4.55
2023-04-27T11:24:07.588Z,3.50
2023-04-27T11:26:34.480Z,3.75
2023-04-27T11:29:12.353Z,4.72
2023-04-27T11:31:49.052Z,4.63
2023-04-27T11:34:24.117Z,5.22
2023-04-27T11:37:23.937Z,3.80
2023-04-27T11:42:31.454Z,4.28
2023-04-27T11:45:08.055Z,5.18
2023-04-27T11:47:38.148Z,4.38
2023-04-27T11:50:10.513Z,5.00
2023-04-27T11:52:40.461Z,4.80
2023-04-27T11:55:09.270Z,3.05
2023-04-27T11:57:37.156Z,3.65
2023-04-27T12:00:15.122Z,4.70
2023-04-27T12:02:43.512Z,4.32
2023-04-27T12:05:12.315Z,4.32
2023-04-27T12:07:39.630Z,4.30
2023-04-27T12:10:07.811Z,4.38
2023-04-27T12:12:34.543Z,4.88
2023-04-27T12:15:01.633Z,4.70
2023-04-27T12:17:28.437Z,4.20
2023-04-27T12:19:55.183Z,3.65
2023-04-27T12:22:22.288Z,3.65
2023-04-27T12:24:51.340Z,3.28
2023-04-27T12:27:18.114Z,3.03
2023-04-27T12:29:44.836Z,3.40
2023-04-27T12:32:11.689Z,2.95
2023-04-27T12:34:39.361Z,4.03
2023-04-27T12:37:06.583Z,4.50
2023-04-27T12:39:33.290Z,3.40
2023-04-27T12:42:00.033Z,3.03
2023-04-27T12:44:29.206Z,2.97
2023-04-27T12:46:56.410Z,3.63
2023-04-27T12:49:23.166Z,3.60
2023-04-27T12:51:51.852Z,3.95
2023-04-27T12:54:21.157Z,3.15
2023-04-27T12:56:47.841Z,3.03
2023-04-27T12:59:19.296Z,2.50
2023-04-27T13:01:48.532Z,2.97
2023-04-27T13:04:20.892Z,3.20
2023-04-27T13:06:48.519Z,3.33
2023-04-27T13:09:17.362Z,2.50
2023-04-27T13:11:44.147Z,3.13
2023-04-27T13:14:13.149Z,2.92
2023-04-27T13:16:45.768Z,2.58
2023-04-27T13:19:12.500Z,2.60
2023-04-27T13:21:39.405Z,3.47
2023-04-27T13:24:06.670Z,3.33
2023-04-27T13:26:34.077Z,2.80
2023-04-27T13:29:02.230Z,2.97
2023-04-27T13:31:31.877Z,3.20
2023-04-27T13:36:25.570Z,3.50
2023-04-27T13:38:54.741Z,3.75
2023-04-27T13:41:22.365Z,3.80
2023-04-27T13:43:51.501Z,3.60
2023-04-27T13:46:18.274Z,2.97
2023-04-27T13:48:44.968Z,3.72
2023-04-27T13:51:11.794Z,3.45
2023-04-27T13:53:38.482Z,4.00
2023-04-27T13:56:05.711Z,4.75
2023-04-27T13:58:32.636Z,3.60
2023-04-27T14:00:59.554Z,3.75
2023-04-27T14:03:26.499Z,3.05
2023-04-27T14:05:53.320Z,3.95
2023-04-27T14:08:24.955Z,3.15
2023-04-27T14:10:51.663Z,3.22
2023-04-27T14:13:18.708Z,3.58
2023-04-27T14:15:45.765Z,3.38
2023-04-27T14:18:12.910Z,3.13
2023-04-27T14:20:41.977Z,3.42
2023-04-27T14:23:09.360Z,3.35
2023-04-27T14:25:39.110Z,2.97
2023-04-27T14:28:06.684Z,3.55
2023-04-27T14:30:34.486Z,2.85
2023-04-27T14:33:03.857Z,2.92
2023-04-27T14:35:30.735Z,3.00
2023-04-27T14:38:01.969Z,3.13
2023-04-27T14:40:32.332Z,3.22
2023-04-27T14:42:59.500Z,3.35
2023-04-27T14:45:36.730Z,2.95
2023-04-27T14:48:06.913Z,3.70
2023-04-27T14:50:33.693Z,3.72
2023-04-27T14:53:02.906Z,3.45
2023-04-27T14:55:29.695Z,2.83
2023-04-27T14:57:56.416Z,2.80
2023-04-27T15:00:25.913Z,2.53
2023-04-27T15:02:55.027Z,2.45
2023-04-27T15:05:25.011Z,2.75
2023-04-27T15:07:51.702Z,2.53
2023-04-27T15:10:18.675Z,3.33
2023-04-27T15:12:46.532Z,2.80
2023-04-27T15:15:13.487Z,3.47
2023-04-27T15:17:40.217Z,3.40
2023-04-27T15:20:10.752Z,2.60
2023-04-27T15:22:37.850Z,2.55
2023-04-27T15:25:05.076Z,3.25
2023-04-27T15:27:32.177Z,2.90
2023-04-27T15:29:59.572Z,3.00
2023-04-27T15:32:29.952Z,2.90
2023-04-27T15:35:00.367Z,3.03
2023-04-27T15:37:28.480Z,2.90
2023-04-27T15:39:55.800Z,2.80
2023-04-27T15:42:23.736Z,2.60
2023-04-27T15:44:50.982Z,2.63
2023-04-27T15:47:18.068Z,3.33
2023-04-27T15:49:56.244Z,2.83
2023-04-27T15:54:53.608Z,3.08
2023-04-27T15:57:25.035Z,2.90
2023-04-27T15:59:54.203Z,3.08
2023-04-27T16:02:21.353Z,3.38
2023-04-27T16:04:49.160Z,2.60
2023-04-27T16:07:15.904Z,2.63
2023-04-27T16:09:45.052Z,2.60
2023-04-27T16:12:14.240Z,2.63
2023-04-27T16:14:45.862Z,2.70
2023-04-27T16:17:12.590Z,2.58
2023-04-27T16:19:41.599Z,2.90
2023-04-27T16:22:08.361Z,3.20
2023-04-27T16:24:35.090Z,2.17
2023-04-27T16:27:04.104Z,2.92
2023-04-27T16:29:33.318Z,3.35
2023-04-27T16:32:00.726Z,3.50
2023-04-27T16:34:27.892Z,2.30
2023-04-27T16:36:55.026Z,2.65
2023-04-27T16:39:24.519Z,2.70
2023-04-27T16:41:51.252Z,2.58
2023-04-27T16:44:20.279Z,2.30
2023-04-27T16:46:52.441Z,2.00
2023-04-27T16:49:21.513Z,2.20
2023-04-27T16:51:48.244Z,2.45
2023-04-27T16:54:16.518Z,2.67
2023-04-27T16:56:46.571Z,2.38
2023-04-27T16:59:13.583Z,2.22
2023-04-27T17:01:40.667Z,2.55
2023-04-27T17:04:07.625Z,2.85
2023-04-27T17:06:36.555Z,2.28
2023-04-27T17:09:03.284Z,2.50
2023-04-27T17:11:32.392Z,2.60
2023-04-27T17:13:59.310Z,2.67
2023-04-27T17:16:30.848Z,2.75
2023-04-27T17:18:57.567Z,3.05
2023-04-27T17:21:25.470Z,2.33
2023-04-27T17:23:54.587Z,2.58
2023-04-27T17:26:21.690Z,2.38
2023-04-27T17:28:49.501Z,2.10
2023-04-27T17:31:19.456Z,2.15
2023-04-27T17:33:46.166Z,2.65
2023-04-27T17:36:15.164Z,2.30
2023-04-27T17:38:44.270Z,2.47
2023-04-27T17:41:13.115Z,2.45
2023-04-27T17:43:39.886Z,2.13
2023-04-27T17:46:09.551Z,2.08
2023-04-27T17:51:05.751Z,2.20
2023-04-27T17:53:32.489Z,2.42
2023-04-27T17:56:01.525Z,2.38
2023-04-27T17:58:28.227Z,2.00
2023-04-27T18:00:57.512Z,2.40
2023-04-27T18:03:26.878Z,2.75
2023-04-27T18:05:56.088Z,1.73
2023-04-27T18:08:22.755Z,2.57
2023-04-27T18:10:49.482Z,2.13
2023-04-27T18:13:16.278Z,2.33
2023-04-27T18:15:43.136Z,2.10
2023-04-27T18:18:11.166Z,2.10
2023-04-27T18:20:37.940Z,2.55
2023-04-27T18:23:04.671Z,2.03
2023-04-27T18:25:33.850Z,2.03
2023-04-27T18:28:00.755Z,2.35
2023-04-27T18:30:27.543Z,2.10
2023-04-27T18:32:54.251Z,2.30
2023-04-27T18:35:21.068Z,2.60
2023-04-27T18:37:48.910Z,2.60
2023-04-27T18:40:19.064Z,2.60
2023-04-27T18:42:48.050Z,2.17
2023-04-27T18:45:15.385Z,2.83
2023-04-27T18:47:42.180Z,2.55
2023-04-27T18:50:10.357Z,2.28
2023-04-27T18:52:37.050Z,2.30
2023-04-27T18:55:04.044Z,2.22
2023-04-27T18:57:35.538Z,1.90
2023-04-27T19:00:04.495Z,2.10
2023-04-27T19:02:31.756Z,2.40
2023-04-27T19:05:11.367Z,2.33
2023-04-27T19:07:42.550Z,1.80
2023-04-27T19:10:09.767Z,2.10
2023-04-27T19:12:36.551Z,1.77
2023-04-27T19:15:03.711Z,1.95
2023-04-27T19:17:33.089Z,2.00
2023-04-27T19:19:59.954Z,2.10
2023-04-27T19:22:34.030Z,2.03
2023-04-27T19:25:01.538Z,1.77
2023-04-27T19:27:28.352Z,2.20
2023-04-27T19:29:58.724Z,1.88
2023-04-27T19:32:28.621Z,2.00
2023-04-27T19:34:56.964Z,2.15
2023-04-27T19:37:27.800Z,1.70
2023-04-27T19:39:54.786Z,2.33
2023-04-27T19:42:24.906Z,2.10
2023-04-27T19:44:51.723Z,2.17
2023-04-27T19:47:18.656Z,2.40
2023-04-27T19:49:49.820Z,2.00
2023-04-27T19:52:16.483Z,2.40
2023-04-27T19:54:43.208Z,2.30
2023-04-27T19:57:09.962Z,1.95
2023-04-27T19:59:39.125Z,2.13
2023-04-27T20:02:05.877Z,1.92
2023-04-27T20:05:29.341Z,2.08
2023-04-27T20:08:52.656Z,1.77
2023-04-27T20:12:34.920Z,1.98
2023-04-27T20:16:05.088Z,2.13
2023-04-27T20:19:28.426Z,1.92
2023-04-27T20:22:51.392Z,2.33
2023-04-27T20:26:14.582Z,2.22
2023-04-27T20:29:37.453Z,1.95
2023-04-27T20:33:07.081Z,2.20
2023-04-27T20:39:46.975Z,2.00
2023-04-27T20:43:10.167Z,2.30
2023-04-27T20:46:39.339Z,2.40
2023-04-27T20:50:02.293Z,2.08
2023-04-27T20:53:37.522Z,2.03
2023-04-27T20:57:00.543Z,2.40
2023-04-27T21:00:23.732Z,2.35
2023-04-27T21:07:33.881Z,2.83
2023-04-27T21:11:02.866Z,2.58
2023-04-27T21:14:31.910Z,2.50
2023-04-27T21:18:13.415Z,3.35
2023-04-27T21:21:45.745Z,3.03
2023-04-27T21:28:49.848Z,3.58
2023-04-27T21:32:31.163Z,2.65
2023-04-27T21:36:06.231Z,2.65
2023-04-27T21:39:35.685Z,2.92
2023-04-27T21:42:58.480Z,3.03
2023-04-27T21:46:33.696Z,2.97
2023-04-27T21:49:57.127Z,2.67
2023-04-27T21:52:42.085Z,2.47
2023-04-27T21:55:26.969Z,3.00
2023-04-27T21:57:59.312Z,2.88
2023-04-27T22:00:38.864Z,2.90
2023-04-27T22:03:08.892Z,4.30
2023-04-27T22:06:00.433Z,2.65
2023-04-27T22:08:51.845Z,2.95
2023-04-27T22:11:43.222Z,2.92
2023-04-27T22:14:41.750Z,2.92
2023-04-27T22:17:15.140Z,2.92
2023-04-27T22:19:47.995Z,2.88
2023-04-27T22:22:16.892Z,2.92
2023-04-27T22:24:45.691Z,2.83
2023-04-27T22:27:12.759Z,2.70
2023-04-27T22:29:39.450Z,3.53
2023-04-27T22:32:06.588Z,2.40
2023-04-27T22:34:33.830Z,2.60
2023-04-27T22:37:00.645Z,2.95
2023-04-27T22:39:27.417Z,3.13
2023-04-27T22:41:56.539Z,2.45
2023-04-27T22:44:23.215Z,2.70
2023-04-27T22:46:49.969Z,2.80
2023-04-27T22:49:17.300Z,2.97
2023-04-27T22:51:47.098Z,2.97
2023-04-27T22:56:43.320Z,2.70
2023-04-27T22:59:10.083Z,2.80
2023-04-27T23:01:36.831Z,2.85
2023-04-27T23:04:06.001Z,2.75
2023-04-27T23:06:32.882Z,2.25
2023-04-27T23:09:03.074Z,2.65
2023-04-27T23:11:29.769Z,2.38
2023-04-27T23:13:58.936Z,2.55
2023-04-27T23:16:30.069Z,2.40
2023-04-27T23:18:56.760Z,2.80
2023-04-27T23:21:28.128Z,2.00
2023-04-27T23:23:54.811Z,2.08
2023-04-27T23:26:23.942Z,2.45
2023-04-27T23:28:52.882Z,2.63
2023-04-27T23:31:19.585Z,2.10
2023-04-27T23:33:46.261Z,2.42
2023-04-27T23:36:12.908Z,2.50
2023-04-27T23:38:42.061Z,2.80
2023-04-27T23:41:08.728Z,2.28
2023-04-27T23:43:35.404Z,2.45
2023-04-27T23:46:02.499Z,2.13
2023-04-27T23:48:29.188Z,2.78
2023-04-27T23:51:07.191Z,1.92
2023-04-27T23:53:36.028Z,1.98
2023-04-27T23:56:02.715Z,2.47
2023-04-27T23:58:29.440Z,2.30
